Terminal Aerodrome Forecast
Issued by NWS Wakefield, VA

Home | Current Version | Previous Version | Text Only | Print | Product List | Glossary On
Versions: 1 2 3 4 5 6 7 8 9 10 11 12 13 14 15 16
400
FTUS41 KAKQ 291723
TAFECG
TAF
KECG 291723Z 2918/3018 34008KT P6SM VCSH SCT030 BKN050
     FM292300 35006KT P6SM SCT120 BKN250
     FM300600 03005KT P6SM SCT250
     FM301200 08005KT P6SM SCT080 BKN250=

USA.gov is the U.S. government's official web portal to all federal, state and local government web resources and services.